createdAt,value
2023-04-15T05:53:47.020Z,9.68
2023-04-15T05:56:20.603Z,9.54
2023-04-15T05:58:50.531Z,9.56
2023-04-15T06:01:24.353Z,9.61
2023-04-15T06:03:54.479Z,9.67
2023-04-15T06:06:23.136Z,9.70
2023-04-15T06:47:06.442Z,9.94
2023-04-15T06:49:35.671Z,10.01
2023-04-15T06:52:05.243Z,10.07
2023-04-15T06:54:34.857Z,10.13
2023-04-15T06:57:03.512Z,10.16
2023-04-15T06:59:32.025Z,10.17
2023-04-15T07:02:01.851Z,10.24
2023-04-15T07:04:30.473Z,10.35
2023-04-15T07:06:58.979Z,10.29
2023-04-15T07:09:27.530Z,10.38
2023-04-15T07:11:56.785Z,10.51
2023-04-15T07:14:25.977Z,10.62
2023-04-15T07:16:56.706Z,10.66
2023-04-15T07:19:26.045Z,10.72
2023-04-15T07:21:55.153Z,10.67
2023-04-15T07:24:26.885Z,10.63
2023-04-15T07:27:00.882Z,10.63
2023-04-15T07:29:31.677Z,10.56
2023-04-15T07:31:59.898Z,10.61
2023-04-15T07:34:30.752Z,10.55
2023-04-15T07:37:00.203Z,10.54
2023-04-15T07:39:29.469Z,10.59
2023-04-15T07:41:59.242Z,10.58
2023-04-15T07:44:28.180Z,10.54
2023-04-15T07:46:57.187Z,10.52
2023-04-15T07:49:32.314Z,10.58
2023-04-15T07:52:01.523Z,10.48
2023-04-15T07:54:30.575Z,10.43
2023-04-15T07:56:59.429Z,10.41
2023-04-15T07:59:33.799Z,10.53
2023-04-15T08:02:02.834Z,10.67
2023-04-15T08:04:31.659Z,10.70
2023-04-15T08:07:05.088Z,10.80
2023-04-15T08:09:46.574Z,10.77
2023-04-15T08:12:15.174Z,10.72
2023-04-15T08:14:53.827Z,10.88
2023-04-15T08:17:24.013Z,10.92
2023-04-15T08:19:53.998Z,10.94
2023-04-15T08:22:22.776Z,10.99
2023-04-15T08:24:58.339Z,10.94
2023-04-15T08:27:27.804Z,11.05
2023-04-15T08:29:56.216Z,11.00
2023-04-15T08:32:26.363Z,11.04
2023-04-15T08:35:00.874Z,11.11
2023-04-15T08:37:30.174Z,11.13
2023-04-15T08:39:58.559Z,11.19
2023-04-15T08:42:32.831Z,11.17
2023-04-15T08:45:02.481Z,11.19
2023-04-15T08:47:34.642Z,11.23
2023-04-15T08:50:04.605Z,11.33
2023-04-15T08:52:35.015Z,11.41
2023-04-15T08:55:03.882Z,11.43
2023-04-15T08:57:32.461Z,11.41
2023-04-15T09:00:03.008Z,11.44
2023-04-15T09:02:33.193Z,11.45
2023-04-15T09:05:02.539Z,11.41
2023-04-15T09:07:34.394Z,11.50
2023-04-15T09:10:04.410Z,11.65
2023-04-15T09:12:37.168Z,11.69
2023-04-15T09:15:06.267Z,11.71
2023-04-15T09:17:35.792Z,11.63
2023-04-15T09:20:22.637Z,11.66
2023-04-15T09:22:52.198Z,11.73
2023-04-15T09:25:27.807Z,11.73
2023-04-15T09:28:00.704Z,11.76
2023-04-15T09:30:29.709Z,11.79
2023-04-15T09:32:59.742Z,11.73
2023-04-15T09:35:29.034Z,11.49
2023-04-15T09:38:07.669Z,11.53
2023-04-15T09:40:38.264Z,11.68
2023-04-15T09:43:07.399Z,11.82
2023-04-15T09:45:36.621Z,11.87
2023-04-15T09:48:35.771Z,11.89
2023-04-15T09:51:04.409Z,11.83
2023-04-15T09:53:36.835Z,11.79
2023-04-15T09:56:08.152Z,11.80
2023-04-15T09:58:38.950Z,11.77
2023-04-15T10:01:09.454Z,11.72
2023-04-15T10:03:38.908Z,11.74
2023-04-15T10:06:08.159Z,11.80
2023-04-15T10:08:39.895Z,11.85
2023-04-15T10:11:08.905Z,12.07
2023-04-15T10:13:39.464Z,12.24
2023-04-15T10:16:11.432Z,12.22
2023-04-15T10:18:43.158Z,12.30
2023-04-15T10:21:12.277Z,12.36
2023-04-15T10:23:41.003Z,12.45
2023-04-15T10:26:09.524Z,12.42
2023-04-15T10:28:39.236Z,12.43
2023-04-15T10:31:07.912Z,12.49
2023-04-15T10:33:36.565Z,12.50
2023-04-15T10:36:05.355Z,12.51
2023-04-15T10:38:35.483Z,12.28
2023-04-15T10:41:24.222Z,12.05
2023-04-15T10:43:56.289Z,12.10
2023-04-15T10:46:44.359Z,12.00
2023-04-15T10:49:13.048Z,11.96
2023-04-15T10:51:43.206Z,11.95
2023-04-15T10:54:16.419Z,11.95
2023-04-15T10:56:45.206Z,12.11
2023-04-15T10:59:14.248Z,12.19
2023-04-15T11:02:01.412Z,12.25
2023-04-15T11:05:02.019Z,12.21
2023-04-15T11:07:37.169Z,12.31
2023-04-15T11:10:14.841Z,12.47
2023-04-15T11:12:47.187Z,12.55
2023-04-15T11:15:33.644Z,12.70
2023-04-15T11:18:19.641Z,12.66
2023-04-15T11:21:03.869Z,12.70
2023-04-15T11:23:33.712Z,12.60
2023-04-15T11:26:05.845Z,12.48
2023-04-15T11:28:36.788Z,12.52
2023-04-15T11:31:07.569Z,12.60
2023-04-15T11:33:37.170Z,12.73
2023-04-15T11:36:06.160Z,12.76
2023-04-15T11:38:34.942Z,12.74
2023-04-15T11:41:03.578Z,12.66
2023-04-15T11:43:32.611Z,12.57
2023-04-15T11:46:02.126Z,12.57
2023-04-15T11:48:35.174Z,12.64
2023-04-15T11:51:05.472Z,12.72
2023-04-15T11:53:40.907Z,12.67
2023-04-15T11:56:19.592Z,12.64
2023-04-15T11:58:50.985Z,12.66
2023-04-15T12:01:19.488Z,12.71
2023-04-15T12:03:49.787Z,12.71
2023-04-15T12:06:22.835Z,12.64
2023-04-15T12:08:52.926Z,12.58
2023-04-15T12:11:29.783Z,12.62
2023-04-15T12:14:09.975Z,12.67
2023-04-15T12:16:51.609Z,12.66
2023-04-15T12:19:26.201Z,12.65
2023-04-15T12:22:00.376Z,12.59
2023-04-15T12:24:32.144Z,12.50
2023-04-15T12:27:05.894Z,12.48
2023-04-15T12:29:36.284Z,12.59
2023-04-15T12:32:15.112Z,12.59
2023-04-15T12:34:51.937Z,12.59
2023-04-15T12:37:20.641Z,12.52
2023-04-15T12:39:49.892Z,12.42
2023-04-15T12:42:19.183Z,12.47
2023-04-15T12:44:47.733Z,12.45
2023-04-15T12:47:16.691Z,12.42
2023-04-15T12:49:45.941Z,12.39
2023-04-15T12:52:15.335Z,12.45
2023-04-15T12:54:43.813Z,12.38
2023-04-15T12:57:12.608Z,12.34
2023-04-15T12:59:41.135Z,12.24
2023-04-15T13:02:09.700Z,12.13
2023-04-15T13:04:38.391Z,12.19
2023-04-15T13:07:07.514Z,12.22
2023-04-15T13:09:36.406Z,12.22
2023-04-15T13:12:05.666Z,12.20
2023-04-15T13:14:34.939Z,12.19
2023-04-15T13:17:09.089Z,12.24
2023-04-15T13:19:37.817Z,12.31
2023-04-15T13:22:08.634Z,12.39
2023-04-15T13:24:37.526Z,12.30
2023-04-15T13:27:07.398Z,12.29
2023-04-15T13:29:35.823Z,12.25
2023-04-15T13:32:04.699Z,12.15
2023-04-15T13:34:33.609Z,12.17
2023-04-15T13:37:08.992Z,12.09
2023-04-15T13:39:37.971Z,11.83
2023-04-15T13:42:06.671Z,11.99
2023-04-15T13:44:35.471Z,11.91
2023-04-15T13:47:03.896Z,11.89
2023-04-15T13:49:32.977Z,11.84
2023-04-15T13:52:01.639Z,11.83
2023-04-15T13:54:37.836Z,11.91
2023-04-15T13:57:07.095Z,11.99
2023-04-15T13:59:37.488Z,12.02
2023-04-15T14:02:06.365Z,12.00
2023-04-15T14:04:35.026Z,12.03
2023-04-15T14:07:05.328Z,12.01
2023-04-15T14:09:35.582Z,12.10
2023-04-15T14:12:05.069Z,12.18
2023-04-15T14:14:34.858Z,12.16
2023-04-15T14:17:04.745Z,12.15
2023-04-15T14:19:35.702Z,12.16
2023-04-15T14:22:04.100Z,12.10
2023-04-15T14:24:32.656Z,12.04
2023-04-15T14:27:02.349Z,12.11
2023-04-15T14:29:31.620Z,12.20
2023-04-15T14:32:11.647Z,12.13
2023-04-15T14:34:41.684Z,12.09
2023-04-15T14:37:10.217Z,12.19
2023-04-15T14:39:38.973Z,12.17
2023-04-15T14:42:08.780Z,12.13
2023-04-15T14:44:38.184Z,12.12
2023-04-15T14:47:06.781Z,12.14
2023-04-15T14:49:36.916Z,12.16
2023-04-15T14:52:05.573Z,12.23
2023-04-15T14:54:36.104Z,12.10
2023-04-15T14:57:04.564Z,12.21
2023-04-15T14:59:33.373Z,12.21
2023-04-15T15:02:02.004Z,12.12
2023-04-15T15:04:33.192Z,12.08
2023-04-15T15:07:02.324Z,12.16
2023-04-15T15:09:32.002Z,12.14
2023-04-15T15:12:02.291Z,12.12
2023-04-15T15:14:31.364Z,12.06
2023-04-15T15:16:59.999Z,12.04
2023-04-15T15:19:29.072Z,12.09
2023-04-15T15:21:58.078Z,12.14
2023-04-15T15:24:26.536Z,12.16
2023-04-15T15:26:55.052Z,12.09
2023-04-15T15:29:23.956Z,12.04
2023-04-15T15:31:52.834Z,12.05
2023-04-15T15:34:22.311Z,11.96
2023-04-15T15:36:50.839Z,11.96
2023-04-15T15:39:20.580Z,12.02
2023-04-15T15:41:49.140Z,12.06
2023-04-15T15:44:17.606Z,12.09
2023-04-15T15:46:46.099Z,12.08
2023-04-15T15:49:14.623Z,12.06
2023-04-15T15:51:43.100Z,12.03
2023-04-15T15:54:11.835Z,12.06
2023-04-15T15:56:40.637Z,12.06
2023-04-15T15:59:09.109Z,11.98
2023-04-15T16:01:37.591Z,12.01
2023-04-15T16:04:06.473Z,12.01
2023-04-15T16:06:35.896Z,11.98
2023-04-15T16:09:04.814Z,11.98
2023-04-15T16:11:33.375Z,12.02
2023-04-15T16:14:02.671Z,12.00
2023-04-15T16:16:31.265Z,12.10
2023-04-15T16:18:59.991Z,12.07
2023-04-15T16:21:29.044Z,12.08
2023-04-15T16:23:57.728Z,12.14
2023-04-15T16:26:26.270Z,12.09
2023-04-15T16:28:54.850Z,12.03
2023-04-15T16:31:23.470Z,12.00
2023-04-15T16:33:52.020Z,11.98
2023-04-15T16:36:20.852Z,11.99
2023-04-15T16:38:49.484Z,12.03
2023-04-15T16:41:18.808Z,12.03
2023-04-15T16:43:47.276Z,12.04
2023-04-15T16:46:16.019Z,11.98
2023-04-15T16:48:44.709Z,11.96
2023-04-15T16:51:13.406Z,11.98
2023-04-15T16:53:44.675Z,11.98
2023-04-15T16:56:13.779Z,11.93
2023-04-15T16:58:42.505Z,11.81
2023-04-15T17:01:11.241Z,11.85
2023-04-15T17:03:40.567Z,11.89
2023-04-15T17:06:09.452Z,11.83
2023-04-15T17:08:38.376Z,11.85
2023-04-15T17:11:06.937Z,11.84
2023-04-15T17:13:36.496Z,11.85
2023-04-15T17:16:05.450Z,11.88
2023-04-15T17:18:34.026Z,11.82
2023-04-15T17:21:03.437Z,11.79
2023-04-15T17:23:32.173Z,11.75
2023-04-15T17:26:01.094Z,11.78
2023-04-15T17:28:29.659Z,11.74
2023-04-15T17:30:58.176Z,11.79
2023-04-15T17:33:55.966Z,11.78
2023-04-15T17:36:15.688Z,11.81
2023-04-15T17:38:44.637Z,11.81
2023-04-15T17:41:13.493Z,11.79
2023-04-15T17:43:43.362Z,11.81
2023-04-15T17:46:13.653Z,11.84
2023-04-15T17:48:42.380Z,11.79
2023-04-15T17:51:10.949Z,11.74
2023-04-15T17:53:39.793Z,11.81
2023-04-15T17:56:08.398Z,11.85
2023-04-15T17:58:39.431Z,11.87
2023-04-15T18:01:08.076Z,11.91
2023-04-15T18:03:37.000Z,11.79
2023-04-15T18:06:06.031Z,11.83
2023-04-15T18:08:36.707Z,11.83
2023-04-15T18:11:05.495Z,11.82
2023-04-15T18:13:34.948Z,11.80
2023-04-15T18:16:03.579Z,11.80
2023-04-15T18:18:34.195Z,11.70
2023-04-15T18:21:02.855Z,11.67
2023-04-15T18:23:32.072Z,11.64
2023-04-15T18:26:01.192Z,11.67
2023-04-15T18:28:31.158Z,11.62
2023-04-15T18:30:59.769Z,11.56
2023-04-15T18:33:29.296Z,11.55
2023-04-15T18:35:58.215Z,11.57
2023-04-15T18:38:26.890Z,11.55
2023-04-15T18:40:55.587Z,11.53
2023-04-15T18:43:25.555Z,11.49
2023-04-15T18:45:55.177Z,11.48
2023-04-15T18:48:23.764Z,11.46
2023-04-15T18:50:54.448Z,11.36
2023-04-15T18:53:22.994Z,11.41
2023-04-15T18:55:51.508Z,11.43
2023-04-15T18:58:20.778Z,11.47
2023-04-15T19:00:49.543Z,11.41
2023-04-15T19:03:18.413Z,11.43
2023-04-15T19:05:46.999Z,11.35
2023-04-15T19:08:15.538Z,11.35
2023-04-15T19:10:44.222Z,11.24
2023-04-15T19:13:12.780Z,11.31
2023-04-15T19:15:41.411Z,11.22
2023-04-15T19:18:10.784Z,11.27
2023-04-15T19:20:40.300Z,11.25
2023-04-15T19:23:09.004Z,11.07
2023-04-15T19:25:38.151Z,11.10
2023-04-15T19:28:06.650Z,11.16
2023-04-15T19:30:36.466Z,11.17
2023-04-15T19:33:04.953Z,11.16
2023-04-15T19:35:34.460Z,11.12
2023-04-15T19:38:03.467Z,11.03
2023-04-15T19:40:32.095Z,11.08
2023-04-15T19:43:00.697Z,11.07
2023-04-15T19:45:29.386Z,11.08
2023-04-15T19:47:58.501Z,11.12
2023-04-15T19:50:27.993Z,11.03
2023-04-15T19:52:57.259Z,10.95
2023-04-15T19:55:25.891Z,10.98
2023-04-15T19:57:54.726Z,11.05
2023-04-15T20:00:23.293Z,11.11
2023-04-15T20:02:53.613Z,11.07
2023-04-15T20:05:22.265Z,10.92
2023-04-15T20:07:53.140Z,10.93
2023-04-15T20:10:21.878Z,10.97
2023-04-15T20:12:53.209Z,11.01
2023-04-15T20:15:24.144Z,10.98
2023-04-15T20:17:52.721Z,10.99
2023-04-15T20:20:21.635Z,11.04
2023-04-15T20:22:50.099Z,11.01
2023-04-15T20:25:18.977Z,10.97
2023-04-15T20:27:47.668Z,10.91
2023-04-15T20:30:16.223Z,10.92
2023-04-15T20:32:45.397Z,10.90
2023-04-15T20:35:14.200Z,10.86
2023-04-15T20:37:44.112Z,10.92
2023-04-15T20:40:14.360Z,10.89
2023-04-15T20:42:43.905Z,10.88
2023-04-15T20:45:12.268Z,11.01
2023-04-15T20:47:40.953Z,11.01
2023-04-15T20:50:09.802Z,11.02
2023-04-15T20:52:39.515Z,10.98
2023-04-15T20:55:08.371Z,10.93
2023-04-15T20:57:36.884Z,10.89
2023-04-15T21:00:06.418Z,10.94
2023-04-15T21:02:35.191Z,10.89
2023-04-15T21:05:04.121Z,10.94
2023-04-15T21:07:32.893Z,10.95
2023-04-15T21:10:01.388Z,10.90
2023-04-15T21:12:30.059Z,10.96
2023-04-15T21:14:58.515Z,10.88
2023-04-15T21:17:27.160Z,10.88
2023-04-15T21:19:55.802Z,10.88
2023-04-15T21:22:24.263Z,10.87
2023-04-15T21:24:52.892Z,10.79
2023-04-15T21:27:21.587Z,10.74
2023-04-15T21:29:50.079Z,10.79
2023-04-15T21:32:18.653Z,10.78
2023-04-15T21:34:47.620Z,10.83
2023-04-15T21:37:15.994Z,10.80
2023-04-15T21:39:44.396Z,10.79
2023-04-15T21:42:12.872Z,10.83
2023-04-15T21:44:41.607Z,10.89
2023-04-15T21:47:10.562Z,10.79
2023-04-15T21:49:39.412Z,10.77
2023-04-15T21:52:08.064Z,10.74
2023-04-15T21:54:38.214Z,10.71
2023-04-15T21:57:06.732Z,10.71
2023-04-15T21:59:36.265Z,10.66
2023-04-15T22:02:04.804Z,10.66
2023-04-15T22:04:33.471Z,10.64
2023-04-15T22:07:02.607Z,10.58
2023-04-15T22:09:31.455Z,10.57
2023-04-15T22:12:00.114Z,10.45
2023-04-15T22:14:30.219Z,10.42
2023-04-15T22:16:58.716Z,10.32
2023-04-15T22:19:27.541Z,10.23
2023-04-15T22:21:56.219Z,10.23
2023-04-15T22:24:34.472Z,10.30
2023-04-15T22:27:08.532Z,10.26
2023-04-15T22:29:37.064Z,10.25
2023-04-15T22:32:05.822Z,10.22
2023-04-15T22:34:35.036Z,10.22
2023-04-15T22:37:03.753Z,10.22
2023-04-15T22:39:32.187Z,10.26
2023-04-15T22:42:01.666Z,10.24
2023-04-15T22:44:30.181Z,10.09
2023-04-15T22:46:58.640Z,10.17
2023-04-15T22:49:27.611Z,10.14
2023-04-15T22:51:56.247Z,10.18
2023-04-15T22:54:24.985Z,10.22
2023-04-15T22:56:53.408Z,10.13
2023-04-15T22:59:21.782Z,10.07
2023-04-15T23:01:50.373Z,10.04
2023-04-15T23:04:22.880Z,9.95
2023-04-15T23:06:56.886Z,9.94
2023-04-15T23:09:28.564Z,9.99
2023-04-15T23:11:57.385Z,10.06
2023-04-15T23:14:28.289Z,10.10
2023-04-15T23:16:57.246Z,10.12
2023-04-15T23:19:25.602Z,10.15
2023-04-15T23:21:54.064Z,10.16
2023-04-15T23:24:22.350Z,10.12
2023-04-15T23:26:51.028Z,10.13
2023-04-15T23:29:19.415Z,10.20
2023-04-15T23:31:47.921Z,10.17
2023-04-15T23:34:16.524Z,10.07
2023-04-15T23:36:44.929Z,9.86
2023-04-15T23:39:13.766Z,9.78
2023-04-15T23:41:42.224Z,9.77
2023-04-15T23:44:10.600Z,9.84
2023-04-15T23:46:39.757Z,10.01
2023-04-15T23:49:08.417Z,9.96
2023-04-15T23:51:38.201Z,10.02
2023-04-15T23:54:06.890Z,9.99
2023-04-15T23:56:35.147Z,9.84
2023-04-15T23:59:03.862Z,9.91
